METAR Torp

ENTO 260150Z AUTO 36004KT 9999 NCD 15/07 Q1027

METAR Gardermoen

ENGM 260150Z 36006KT 320V020 CAVOK 16/04 Q1027

Webcam Kjeller